sensor_id;sensor_type;location;lat;lon;timestamp;temperature;humidity
13521;DHT22;6832;51.186;3.236;2023-06-22T00:01:17;30.10;52.00
13521;DHT22;6832;51.186;3.236;2023-06-22T00:03:45;30.10;52.00
13521;DHT22;6832;51.186;3.236;2023-06-22T00:06:11;30.10;51.90
13521;DHT22;6832;51.186;3.236;2023-06-22T00:08:40;30.10;51.90
13521;DHT22;6832;51.186;3.236;2023-06-22T00:11:07;30.10;51.80
13521;DHT22;6832;51.186;3.236;2023-06-22T00:13:33;30.10;51.80
13521;DHT22;6832;51.186;3.236;2023-06-22T00:16:00;30.10;51.70
13521;DHT22;6832;51.186;3.236;2023-06-22T00:18:27;30.10;51.70
13521;DHT22;6832;51.186;3.236;2023-06-22T00:20:56;30.00;51.60
13521;DHT22;6832;51.186;3.236;2023-06-22T00:23:26;29.90;51.50
13521;DHT22;6832;51.186;3.236;2023-06-22T00:25:54;30.00;51.60
13521;DHT22;6832;51.186;3.236;2023-06-22T00:28:21;29.90;51.50
13521;DHT22;6832;51.186;3.236;2023-06-22T00:30:49;29.90;51.50
13521;DHT22;6832;51.186;3.236;2023-06-22T00:33:16;29.90;51.50
13521;DHT22;6832;51.186;3.236;2023-06-22T00:35:43;29.90;51.50
13521;DHT22;6832;51.186;3.236;2023-06-22T00:38:10;29.90;51.50
13521;DHT22;6832;51.186;3.236;2023-06-22T00:40:37;29.80;51.40
13521;DHT22;6832;51.186;3.236;2023-06-22T00:43:05;29.80;52.10
13521;DHT22;6832;51.186;3.236;2023-06-22T00:45:32;29.80;51.50
13521;DHT22;6832;51.186;3.236;2023-06-22T00:48:00;29.70;51.40
13521;DHT22;6832;51.186;3.236;2023-06-22T00:50:28;29.70;51.40
13521;DHT22;6832;51.186;3.236;2023-06-22T00:53:00;29.70;51.40
13521;DHT22;6832;51.186;3.236;2023-06-22T00:55:29;29.70;51.50
13521;DHT22;6832;51.186;3.236;2023-06-22T00:57:56;29.60;51.40
13521;DHT22;6832;51.186;3.236;2023-06-22T01:00:25;29.60;51.50
13521;DHT22;6832;51.186;3.236;2023-06-22T01:02:52;29.60;51.50
13521;DHT22;6832;51.186;3.236;2023-06-22T01:05:20;29.50;51.40
13521;DHT22;6832;51.186;3.236;2023-06-22T01:07:59;29.50;51.40
13521;DHT22;6832;51.186;3.236;2023-06-22T01:10:34;29.50;51.40
13521;DHT22;6832;51.186;3.236;2023-06-22T01:13:16;29.50;51.40
13521;DHT22;6832;51.186;3.236;2023-06-22T01:15:48;29.40;51.40
13521;DHT22;6832;51.186;3.236;2023-06-22T01:18:17;29.40;51.40
13521;DHT22;6832;51.186;3.236;2023-06-22T01:20:45;29.40;51.50
13521;DHT22;6832;51.186;3.236;2023-06-22T01:23:26;29.40;51.50
13521;DHT22;6832;51.186;3.236;2023-06-22T01:26:17;29.30;51.40
13521;DHT22;6832;51.186;3.236;2023-06-22T01:28:47;29.30;51.40
13521;DHT22;6832;51.186;3.236;2023-06-22T01:31:18;29.30;51.40
13521;DHT22;6832;51.186;3.236;2023-06-22T01:33:49;29.30;51.40
13521;DHT22;6832;51.186;3.236;2023-06-22T01:36:17;29.30;51.50
13521;DHT22;6832;51.186;3.236;2023-06-22T01:38:45;29.20;51.50
13521;DHT22;6832;51.186;3.236;2023-06-22T01:41:13;29.20;51.40
13521;DHT22;6832;51.186;3.236;2023-06-22T01:43:41;29.20;51.40
13521;DHT22;6832;51.186;3.236;2023-06-22T01:46:11;29.10;51.40
13521;DHT22;6832;51.186;3.236;2023-06-22T01:48:38;29.10;51.40
13521;DHT22;6832;51.186;3.236;2023-06-22T01:51:06;29.10;51.40
13521;DHT22;6832;51.186;3.236;2023-06-22T01:53:33;29.10;51.50
13521;DHT22;6832;51.186;3.236;2023-06-22T01:56:00;29.10;51.40
13521;DHT22;6832;51.186;3.236;2023-06-22T01:58:27;29.10;51.50
13521;DHT22;6832;51.186;3.236;2023-06-22T02:00:59;29.00;51.40
13521;DHT22;6832;51.186;3.236;2023-06-22T02:03:34;29.00;52.00
13521;DHT22;6832;51.186;3.236;2023-06-22T02:06:05;29.00;51.40
13521;DHT22;6832;51.186;3.236;2023-06-22T02:08:38;29.00;51.50
13521;DHT22;6832;51.186;3.236;2023-06-22T02:11:07;29.00;51.50
13521;DHT22;6832;51.186;3.236;2023-06-22T02:13:36;29.00;51.50
13521;DHT22;6832;51.186;3.236;2023-06-22T02:16:03;28.90;51.40
13521;DHT22;6832;51.186;3.236;2023-06-22T02:18:32;28.90;51.40
13521;DHT22;6832;51.186;3.236;2023-06-22T02:21:01;28.90;51.40
13521;DHT22;6832;51.186;3.236;2023-06-22T02:23:28;28.80;51.40
13521;DHT22;6832;51.186;3.236;2023-06-22T02:25:54;28.80;51.40
13521;DHT22;6832;51.186;3.236;2023-06-22T02:28:21;28.80;51.40
13521;DHT22;6832;51.186;3.236;2023-06-22T02:30:48;28.80;51.40
13521;DHT22;6832;51.186;3.236;2023-06-22T02:33:15;28.80;51.50
13521;DHT22;6832;51.186;3.236;2023-06-22T02:35:43;28.80;51.50
13521;DHT22;6832;51.186;3.236;2023-06-22T02:38:14;28.80;51.50
13521;DHT22;6832;51.186;3.236;2023-06-22T02:40:43;28.70;51.40
13521;DHT22;6832;51.186;3.236;2023-06-22T02:43:10;28.70;51.40
13521;DHT22;6832;51.186;3.236;2023-06-22T02:45:37;28.70;51.40
13521;DHT22;6832;51.186;3.236;2023-06-22T02:48:04;28.70;51.40
13521;DHT22;6832;51.186;3.236;2023-06-22T02:50:31;28.70;51.40
13521;DHT22;6832;51.186;3.236;2023-06-22T02:53:00;28.70;51.50
13521;DHT22;6832;51.186;3.236;2023-06-22T02:55:26;28.70;51.50
13521;DHT22;6832;51.186;3.236;2023-06-22T02:57:54;28.60;51.40
13521;DHT22;6832;51.186;3.236;2023-06-22T03:00:20;28.60;51.40
13521;DHT22;6832;51.186;3.236;2023-06-22T03:02:48;28.60;51.40
13521;DHT22;6832;51.186;3.236;2023-06-22T03:05:15;28.60;51.50
13521;DHT22;6832;51.186;3.236;2023-06-22T03:07:44;28.60;51.50
13521;DHT22;6832;51.186;3.236;2023-06-22T03:10:13;28.50;51.40
13521;DHT22;6832;51.186;3.236;2023-06-22T03:12:40;28.50;51.40
13521;DHT22;6832;51.186;3.236;2023-06-22T03:15:09;28.50;51.40
13521;DHT22;6832;51.186;3.236;2023-06-22T03:17:38;28.50;51.40
13521;DHT22;6832;51.186;3.236;2023-06-22T03:20:06;28.50;52.00
13521;DHT22;6832;51.186;3.236;2023-06-22T03:22:36;28.50;51.40
13521;DHT22;6832;51.186;3.236;2023-06-22T03:25:03;28.50;51.40
13521;DHT22;6832;51.186;3.236;2023-06-22T03:27:36;28.40;51.30
13521;DHT22;6832;51.186;3.236;2023-06-22T03:30:04;28.40;51.30
13521;DHT22;6832;51.186;3.236;2023-06-22T03:32:31;28.40;51.40
13521;DHT22;6832;51.186;3.236;2023-06-22T03:34:58;28.40;51.40
13521;DHT22;6832;51.186;3.236;2023-06-22T03:37:25;28.40;51.40
13521;DHT22;6832;51.186;3.236;2023-06-22T03:39:52;28.40;51.40
13521;DHT22;6832;51.186;3.236;2023-06-22T03:42:19;28.40;51.40
13521;DHT22;6832;51.186;3.236;2023-06-22T03:44:47;28.40;51.40
13521;DHT22;6832;51.186;3.236;2023-06-22T03:47:14;28.40;51.40
13521;DHT22;6832;51.186;3.236;2023-06-22T03:49:44;28.30;51.40
13521;DHT22;6832;51.186;3.236;2023-06-22T03:52:10;28.40;51.50
13521;DHT22;6832;51.186;3.236;2023-06-22T03:54:37;28.30;51.40
13521;DHT22;6832;51.186;3.236;2023-06-22T03:57:04;28.30;51.40
13521;DHT22;6832;51.186;3.236;2023-06-22T03:59:32;28.30;51.40
13521;DHT22;6832;51.186;3.236;2023-06-22T04:02:00;28.30;51.40
13521;DHT22;6832;51.186;3.236;2023-06-22T04:04:27;28.30;51.40
13521;DHT22;6832;51.186;3.236;2023-06-22T04:06:54;28.30;51.50
13521;DHT22;6832;51.186;3.236;2023-06-22T04:09:21;28.20;51.40
13521;DHT22;6832;51.186;3.236;2023-06-22T04:11:48;28.20;51.40
13521;DHT22;6832;51.186;3.236;2023-06-22T04:14:15;28.20;51.40
13521;DHT22;6832;51.186;3.236;2023-06-22T04:16:42;28.20;51.40
13521;DHT22;6832;51.186;3.236;2023-06-22T04:19:10;28.20;51.40
13521;DHT22;6832;51.186;3.236;2023-06-22T04:21:42;28.20;51.40
13521;DHT22;6832;51.186;3.236;2023-06-22T04:24:08;28.20;51.40
13521;DHT22;6832;51.186;3.236;2023-06-22T04:26:35;28.10;51.40
13521;DHT22;6832;51.186;3.236;2023-06-22T04:29:03;28.10;51.40
13521;DHT22;6832;51.186;3.236;2023-06-22T04:31:31;28.10;51.50
13521;DHT22;6832;51.186;3.236;2023-06-22T04:34:03;28.10;51.50
13521;DHT22;6832;51.186;3.236;2023-06-22T04:36:34;28.10;51.50
13521;DHT22;6832;51.186;3.236;2023-06-22T04:39:05;28.10;51.50
13521;DHT22;6832;51.186;3.236;2023-06-22T04:41:32;28.10;51.50
13521;DHT22;6832;51.186;3.236;2023-06-22T04:44:09;28.10;51.50
13521;DHT22;6832;51.186;3.236;2023-06-22T04:46:36;28.10;51.50
13521;DHT22;6832;51.186;3.236;2023-06-22T04:49:05;28.10;51.50
13521;DHT22;6832;51.186;3.236;2023-06-22T04:51:39;28.10;51.60
13521;DHT22;6832;51.186;3.236;2023-06-22T04:54:07;28.10;51.60
13521;DHT22;6832;51.186;3.236;2023-06-22T04:56:34;28.10;51.60
13521;DHT22;6832;51.186;3.236;2023-06-22T04:59:01;28.10;51.60
13521;DHT22;6832;51.186;3.236;2023-06-22T05:01:28;28.10;51.70
13521;DHT22;6832;51.186;3.236;2023-06-22T05:03:56;28.10;51.70
13521;DHT22;6832;51.186;3.236;2023-06-22T05:06:26;28.10;51.70
13521;DHT22;6832;51.186;3.236;2023-06-22T05:08:56;28.10;51.70
13521;DHT22;6832;51.186;3.236;2023-06-22T05:11:24;28.10;51.70
13521;DHT22;6832;51.186;3.236;2023-06-22T05:13:51;28.10;51.70
13521;DHT22;6832;51.186;3.236;2023-06-22T05:16:18;28.10;51.70
13521;DHT22;6832;51.186;3.236;2023-06-22T05:18:51;28.10;51.80
13521;DHT22;6832;51.186;3.236;2023-06-22T05:21:21;28.10;51.80
13521;DHT22;6832;51.186;3.236;2023-06-22T05:23:48;28.10;51.90
13521;DHT22;6832;51.186;3.236;2023-06-22T05:26:16;28.10;51.80
13521;DHT22;6832;51.186;3.236;2023-06-22T05:28:43;28.10;51.90
13521;DHT22;6832;51.186;3.236;2023-06-22T05:31:12;28.10;51.90
13521;DHT22;6832;51.186;3.236;2023-06-22T05:33:39;28.10;51.90
13521;DHT22;6832;51.186;3.236;2023-06-22T05:36:06;28.10;51.80
13521;DHT22;6832;51.186;3.236;2023-06-22T05:38:33;28.10;51.80
13521;DHT22;6832;51.186;3.236;2023-06-22T05:41:00;28.10;51.90
13521;DHT22;6832;51.186;3.236;2023-06-22T05:43:28;28.20;52.00
13521;DHT22;6832;51.186;3.236;2023-06-22T05:45:55;28.10;51.90
13521;DHT22;6832;51.186;3.236;2023-06-22T05:48:22;28.20;52.00
13521;DHT22;6832;51.186;3.236;2023-06-22T05:50:52;28.20;51.90
13521;DHT22;6832;51.186;3.236;2023-06-22T05:53:19;28.20;52.00
13521;DHT22;6832;51.186;3.236;2023-06-22T05:55:46;28.20;52.00
13521;DHT22;6832;51.186;3.236;2023-06-22T05:58:13;28.20;52.00
13521;DHT22;6832;51.186;3.236;2023-06-22T06:00:41;28.20;52.00
13521;DHT22;6832;51.186;3.236;2023-06-22T06:03:09;28.20;52.00
13521;DHT22;6832;51.186;3.236;2023-06-22T06:05:36;28.30;52.10
13521;DHT22;6832;51.186;3.236;2023-06-22T06:08:05;28.30;52.70
13521;DHT22;6832;51.186;3.236;2023-06-22T06:10:32;28.30;52.10
13521;DHT22;6832;51.186;3.236;2023-06-22T06:13:00;28.30;52.10
13521;DHT22;6832;51.186;3.236;2023-06-22T06:15:29;28.20;52.00
13521;DHT22;6832;51.186;3.236;2023-06-22T06:17:58;28.30;52.10
13521;DHT22;6832;51.186;3.236;2023-06-22T06:20:26;28.30;52.70
13521;DHT22;6832;51.186;3.236;2023-06-22T06:22:54;28.30;52.10
13521;DHT22;6832;51.186;3.236;2023-06-22T06:25:21;28.30;52.10
13521;DHT22;6832;51.186;3.236;2023-06-22T06:27:50;28.40;52.20
13521;DHT22;6832;51.186;3.236;2023-06-22T06:30:19;28.40;52.20
13521;DHT22;6832;51.186;3.236;2023-06-22T06:32:47;28.40;52.20
13521;DHT22;6832;51.186;3.236;2023-06-22T06:35:15;28.40;52.20
13521;DHT22;6832;51.186;3.236;2023-06-22T06:37:43;28.40;52.20
13521;DHT22;6832;51.186;3.236;2023-06-22T06:40:12;28.40;52.20
13521;DHT22;6832;51.186;3.236;2023-06-22T06:42:40;28.40;52.20
13521;DHT22;6832;51.186;3.236;2023-06-22T06:45:10;28.40;52.20
13521;DHT22;6832;51.186;3.236;2023-06-22T06:47:37;28.40;52.20
13521;DHT22;6832;51.186;3.236;2023-06-22T06:50:06;28.50;52.20
13521;DHT22;6832;51.186;3.236;2023-06-22T06:52:35;28.50;52.20
13521;DHT22;6832;51.186;3.236;2023-06-22T06:55:02;28.50;52.20
13521;DHT22;6832;51.186;3.236;2023-06-22T06:57:30;28.50;52.20
13521;DHT22;6832;51.186;3.236;2023-06-22T06:59:58;28.50;52.20
13521;DHT22;6832;51.186;3.236;2023-06-22T07:02:26;28.50;52.20
13521;DHT22;6832;51.186;3.236;2023-06-22T07:04:54;28.50;52.20
13521;DHT22;6832;51.186;3.236;2023-06-22T07:07:21;28.60;52.30
13521;DHT22;6832;51.186;3.236;2023-06-22T07:09:50;28.60;52.30
13521;DHT22;6832;51.186;3.236;2023-06-22T07:12:16;28.60;52.30
13521;DHT22;6832;51.186;3.236;2023-06-22T07:14:43;28.60;52.30
13521;DHT22;6832;51.186;3.236;2023-06-22T07:17:10;28.60;52.30
13521;DHT22;6832;51.186;3.236;2023-06-22T07:19:37;28.60;52.40
13521;DHT22;6832;51.186;3.236;2023-06-22T07:22:04;28.70;52.40
13521;DHT22;6832;51.186;3.236;2023-06-22T07:24:31;28.70;52.40
13521;DHT22;6832;51.186;3.236;2023-06-22T07:27:00;28.70;52.40
13521;DHT22;6832;51.186;3.236;2023-06-22T07:29:28;28.70;52.40
13521;DHT22;6832;51.186;3.236;2023-06-22T07:31:55;28.70;52.40
13521;DHT22;6832;51.186;3.236;2023-06-22T07:34:22;28.70;52.50
13521;DHT22;6832;51.186;3.236;2023-06-22T07:36:49;28.70;52.40
13521;DHT22;6832;51.186;3.236;2023-06-22T07:39:16;28.80;52.70
13521;DHT22;6832;51.186;3.236;2023-06-22T07:41:43;28.80;52.50
13521;DHT22;6832;51.186;3.236;2023-06-22T07:44:11;28.80;52.50
13521;DHT22;6832;51.186;3.236;2023-06-22T07:46:38;28.80;52.50
13521;DHT22;6832;51.186;3.236;2023-06-22T07:49:05;28.80;52.50
13521;DHT22;6832;51.186;3.236;2023-06-22T07:51:33;28.80;52.50
13521;DHT22;6832;51.186;3.236;2023-06-22T07:54:00;28.90;52.60
13521;DHT22;6832;51.186;3.236;2023-06-22T07:56:27;28.80;52.60
13521;DHT22;6832;51.186;3.236;2023-06-22T07:58:54;28.90;52.60
13521;DHT22;6832;51.186;3.236;2023-06-22T08:01:25;28.90;52.60
13521;DHT22;6832;51.186;3.236;2023-06-22T08:03:51;28.90;52.60
13521;DHT22;6832;51.186;3.236;2023-06-22T08:06:18;29.00;53.30
13521;DHT22;6832;51.186;3.236;2023-06-22T08:08:45;29.00;52.70
13521;DHT22;6832;51.186;3.236;2023-06-22T08:11:15;29.00;52.60
13521;DHT22;6832;51.186;3.236;2023-06-22T08:13:42;29.00;52.70
13521;DHT22;6832;51.186;3.236;2023-06-22T08:16:09;29.10;52.70
13521;DHT22;6832;51.186;3.236;2023-06-22T08:18:37;29.10;52.70
13521;DHT22;6832;51.186;3.236;2023-06-22T08:21:04;29.10;52.70
13521;DHT22;6832;51.186;3.236;2023-06-22T08:23:31;29.10;52.70
13521;DHT22;6832;51.186;3.236;2023-06-22T08:25:58;29.10;52.70
13521;DHT22;6832;51.186;3.236;2023-06-22T08:28:24;29.10;52.70
13521;DHT22;6832;51.186;3.236;2023-06-22T08:30:51;29.20;52.80
13521;DHT22;6832;51.186;3.236;2023-06-22T08:33:18;29.10;52.70
13521;DHT22;6832;51.186;3.236;2023-06-22T08:35:46;29.20;52.70
13521;DHT22;6832;51.186;3.236;2023-06-22T08:38:14;29.20;52.90
13521;DHT22;6832;51.186;3.236;2023-06-22T08:40:43;29.20;52.80
13521;DHT22;6832;51.186;3.236;2023-06-22T08:43:10;29.20;52.70
13521;DHT22;6832;51.186;3.236;2023-06-22T08:45:37;29.30;52.70
13521;DHT22;6832;51.186;3.236;2023-06-22T08:48:04;29.20;52.70
13521;DHT22;6832;51.186;3.236;2023-06-22T08:50:31;29.20;52.70
13521;DHT22;6832;51.186;3.236;2023-06-22T08:52:59;29.20;52.70
13521;DHT22;6832;51.186;3.236;2023-06-22T08:55:26;29.20;52.70
13521;DHT22;6832;51.186;3.236;2023-06-22T08:57:53;29.30;52.70
13521;DHT22;6832;51.186;3.236;2023-06-22T09:00:20;29.30;52.70
13521;DHT22;6832;51.186;3.236;2023-06-22T09:02:48;29.30;52.80
13521;DHT22;6832;51.186;3.236;2023-06-22T09:05:15;29.30;52.80
13521;DHT22;6832;51.186;3.236;2023-06-22T09:07:42;29.30;52.80
13521;DHT22;6832;51.186;3.236;2023-06-22T09:10:11;29.30;52.80
13521;DHT22;6832;51.186;3.236;2023-06-22T09:12:39;29.30;52.80
13521;DHT22;6832;51.186;3.236;2023-06-22T09:15:06;29.30;52.80
13521;DHT22;6832;51.186;3.236;2023-06-22T09:17:34;29.20;53.30
13521;DHT22;6832;51.186;3.236;2023-06-22T09:20:03;29.20;53.30
13521;DHT22;6832;51.186;3.236;2023-06-22T09:22:32;29.30;53.10
13521;DHT22;6832;51.186;3.236;2023-06-22T09:24:59;29.40;53.00
13521;DHT22;6832;51.186;3.236;2023-06-22T09:27:27;29.40;52.90
13521;DHT22;6832;51.186;3.236;2023-06-22T09:29:54;29.40;52.90
13521;DHT22;6832;51.186;3.236;2023-06-22T09:32:23;29.40;52.80
13521;DHT22;6832;51.186;3.236;2023-06-22T09:34:50;29.40;52.80
13521;DHT22;6832;51.186;3.236;2023-06-22T09:37:17;29.40;52.80
13521;DHT22;6832;51.186;3.236;2023-06-22T09:39:44;29.40;52.80
13521;DHT22;6832;51.186;3.236;2023-06-22T09:42:11;29.40;52.80
13521;DHT22;6832;51.186;3.236;2023-06-22T09:44:40;29.50;52.80
13521;DHT22;6832;51.186;3.236;2023-06-22T09:47:07;29.40;52.70
13521;DHT22;6832;51.186;3.236;2023-06-22T09:49:34;29.40;52.70
13521;DHT22;6832;51.186;3.236;2023-06-22T09:52:01;29.40;52.70
13521;DHT22;6832;51.186;3.236;2023-06-22T09:54:28;29.40;52.70
13521;DHT22;6832;51.186;3.236;2023-06-22T09:56:54;29.50;52.80
13521;DHT22;6832;51.186;3.236;2023-06-22T09:59:21;29.40;52.70
13521;DHT22;6832;51.186;3.236;2023-06-22T10:01:49;29.40;52.80
13521;DHT22;6832;51.186;3.236;2023-06-22T10:04:16;29.40;53.00
13521;DHT22;6832;51.186;3.236;2023-06-22T10:06:43;29.40;53.00
13521;DHT22;6832;51.186;3.236;2023-06-22T10:09:10;29.50;53.10
13521;DHT22;6832;51.186;3.236;2023-06-22T10:11:37;29.40;53.10
13521;DHT22;6832;51.186;3.236;2023-06-22T10:14:04;29.40;53.10
13521;DHT22;6832;51.186;3.236;2023-06-22T10:16:31;29.40;53.20
13521;DHT22;6832;51.186;3.236;2023-06-22T10:18:59;29.50;53.20
13521;DHT22;6832;51.186;3.236;2023-06-22T10:21:26;29.50;53.50
13521;DHT22;6832;51.186;3.236;2023-06-22T10:23:54;29.40;53.40
13521;DHT22;6832;51.186;3.236;2023-06-22T10:26:20;29.50;53.40
13521;DHT22;6832;51.186;3.236;2023-06-22T10:28:47;29.50;53.30
13521;DHT22;6832;51.186;3.236;2023-06-22T10:31:14;29.50;53.30
13521;DHT22;6832;51.186;3.236;2023-06-22T10:33:42;29.50;53.30
13521;DHT22;6832;51.186;3.236;2023-06-22T10:36:11;29.50;53.40
13521;DHT22;6832;51.186;3.236;2023-06-22T10:38:38;29.50;53.40
13521;DHT22;6832;51.186;3.236;2023-06-22T10:41:04;29.40;53.40
13521;DHT22;6832;51.186;3.236;2023-06-22T10:43:31;29.50;53.50
13521;DHT22;6832;51.186;3.236;2023-06-22T10:45:58;29.50;53.50
13521;DHT22;6832;51.186;3.236;2023-06-22T10:48:25;29.50;53.50
13521;DHT22;6832;51.186;3.236;2023-06-22T10:50:52;29.50;53.50
13521;DHT22;6832;51.186;3.236;2023-06-22T10:53:21;29.50;53.50
13521;DHT22;6832;51.186;3.236;2023-06-22T10:55:48;29.50;53.50
13521;DHT22;6832;51.186;3.236;2023-06-22T10:58:15;29.50;53.50
13521;DHT22;6832;51.186;3.236;2023-06-22T11:00:42;29.50;53.50
13521;DHT22;6832;51.186;3.236;2023-06-22T11:03:08;29.50;53.50
13521;DHT22;6832;51.186;3.236;2023-06-22T11:05:35;29.60;53.50
13521;DHT22;6832;51.186;3.236;2023-06-22T11:08:02;29.50;53.50
13521;DHT22;6832;51.186;3.236;2023-06-22T11:10:30;29.50;53.40
13521;DHT22;6832;51.186;3.236;2023-06-22T11:12:57;29.50;53.30
13521;DHT22;6832;51.186;3.236;2023-06-22T11:15:24;29.60;53.30
13521;DHT22;6832;51.186;3.236;2023-06-22T11:17:51;29.60;53.40
13521;DHT22;6832;51.186;3.236;2023-06-22T11:20:18;29.60;53.30
13521;DHT22;6832;51.186;3.236;2023-06-22T11:22:45;29.50;53.30
13521;DHT22;6832;51.186;3.236;2023-06-22T11:25:12;29.50;53.30
13521;DHT22;6832;51.186;3.236;2023-06-22T11:27:40;29.50;53.30
13521;DHT22;6832;51.186;3.236;2023-06-22T11:30:08;29.50;53.30
13521;DHT22;6832;51.186;3.236;2023-06-22T11:32:35;29.50;53.30
13521;DHT22;6832;51.186;3.236;2023-06-22T11:35:02;29.50;53.20
13521;DHT22;6832;51.186;3.236;2023-06-22T11:37:28;29.50;53.30
13521;DHT22;6832;51.186;3.236;2023-06-22T11:39:55;29.50;53.20
13521;DHT22;6832;51.186;3.236;2023-06-22T11:42:24;29.50;53.20
13521;DHT22;6832;51.186;3.236;2023-06-22T11:44:52;29.50;53.20
13521;DHT22;6832;51.186;3.236;2023-06-22T11:47:19;29.50;53.30
13521;DHT22;6832;51.186;3.236;2023-06-22T11:49:45;29.50;53.30
13521;DHT22;6832;51.186;3.236;2023-06-22T11:52:12;29.50;53.30
13521;DHT22;6832;51.186;3.236;2023-06-22T11:54:39;29.50;53.30
13521;DHT22;6832;51.186;3.236;2023-06-22T11:57:06;29.50;53.30
13521;DHT22;6832;51.186;3.236;2023-06-22T11:59:33;29.40;53.20
13521;DHT22;6832;51.186;3.236;2023-06-22T12:02:02;29.40;53.20
13521;DHT22;6832;51.186;3.236;2023-06-22T12:04:29;29.40;53.20
13521;DHT22;6832;51.186;3.236;2023-06-22T12:06:56;29.40;53.20
13521;DHT22;6832;51.186;3.236;2023-06-22T12:09:24;29.40;53.20
13521;DHT22;6832;51.186;3.236;2023-06-22T12:11:50;29.40;53.30
13521;DHT22;6832;51.186;3.236;2023-06-22T12:14:17;29.40;53.30
13521;DHT22;6832;51.186;3.236;2023-06-22T12:16:44;29.40;53.30
13521;DHT22;6832;51.186;3.236;2023-06-22T12:19:12;29.40;53.30
13521;DHT22;6832;51.186;3.236;2023-06-22T12:21:39;29.40;53.30
13521;DHT22;6832;51.186;3.236;2023-06-22T12:24:07;29.40;53.30
13521;DHT22;6832;51.186;3.236;2023-06-22T12:26:33;29.40;53.40
13521;DHT22;6832;51.186;3.236;2023-06-22T12:29:00;29.40;53.40
13521;DHT22;6832;51.186;3.236;2023-06-22T12:31:27;29.40;53.40
13521;DHT22;6832;51.186;3.236;2023-06-22T12:33:54;29.30;53.40
13521;DHT22;6832;51.186;3.236;2023-06-22T12:36:22;29.30;53.30
13521;DHT22;6832;51.186;3.236;2023-06-22T12:38:50;29.40;53.40
13521;DHT22;6832;51.186;3.236;2023-06-22T12:41:17;29.30;53.40
13521;DHT22;6832;51.186;3.236;2023-06-22T12:43:44;29.40;53.50
13521;DHT22;6832;51.186;3.236;2023-06-22T12:46:11;29.40;53.40
13521;DHT22;6832;51.186;3.236;2023-06-22T12:48:38;29.40;53.50
13521;DHT22;6832;51.186;3.236;2023-06-22T12:51:07;29.30;53.40
13521;DHT22;6832;51.186;3.236;2023-06-22T12:53:36;29.30;53.40
13521;DHT22;6832;51.186;3.236;2023-06-22T12:56:03;29.30;53.40
13521;DHT22;6832;51.186;3.236;2023-06-22T12:58:30;29.30;53.40
13521;DHT22;6832;51.186;3.236;2023-06-22T13:00:57;29.30;53.40
13521;DHT22;6832;51.186;3.236;2023-06-22T13:03:24;29.30;53.40
13521;DHT22;6832;51.186;3.236;2023-06-22T13:05:53;29.40;53.40
13521;DHT22;6832;51.186;3.236;2023-06-22T13:08:20;29.30;53.40
13521;DHT22;6832;51.186;3.236;2023-06-22T13:10:48;29.30;53.40
13521;DHT22;6832;51.186;3.236;2023-06-22T13:13:15;29.30;53.40
13521;DHT22;6832;51.186;3.236;2023-06-22T13:15:42;29.30;53.40
13521;DHT22;6832;51.186;3.236;2023-06-22T13:18:09;29.30;53.40
13521;DHT22;6832;51.186;3.236;2023-06-22T13:20:36;29.30;53.40
13521;DHT22;6832;51.186;3.236;2023-06-22T13:23:02;29.30;53.40
13521;DHT22;6832;51.186;3.236;2023-06-22T13:25:29;29.30;53.40
13521;DHT22;6832;51.186;3.236;2023-06-22T13:27:58;29.30;53.40
13521;DHT22;6832;51.186;3.236;2023-06-22T13:30:24;29.40;53.40
13521;DHT22;6832;51.186;3.236;2023-06-22T13:32:51;29.30;53.40
13521;DHT22;6832;51.186;3.236;2023-06-22T13:35:18;29.30;53.40
13521;DHT22;6832;51.186;3.236;2023-06-22T13:37:45;29.40;53.40
13521;DHT22;6832;51.186;3.236;2023-06-22T13:40:12;29.30;53.40
13521;DHT22;6832;51.186;3.236;2023-06-22T13:42:40;29.30;53.40
13521;DHT22;6832;51.186;3.236;2023-06-22T13:45:09;29.30;53.40
13521;DHT22;6832;51.186;3.236;2023-06-22T13:47:37;29.40;53.40
13521;DHT22;6832;51.186;3.236;2023-06-22T13:50:04;29.30;53.40
13521;DHT22;6832;51.186;3.236;2023-06-22T13:52:31;29.40;53.40
13521;DHT22;6832;51.186;3.236;2023-06-22T13:54:58;29.40;53.40
13521;DHT22;6832;51.186;3.236;2023-06-22T13:57:25;29.40;53.40
13521;DHT22;6832;51.186;3.236;2023-06-22T13:59:52;29.40;53.40
13521;DHT22;6832;51.186;3.236;2023-06-22T14:02:20;29.40;53.40
13521;DHT22;6832;51.186;3.236;2023-06-22T14:04:47;29.40;53.40
13521;DHT22;6832;51.186;3.236;2023-06-22T14:07:14;29.40;53.40
13521;DHT22;6832;51.186;3.236;2023-06-22T14:09:41;29.40;53.40
13521;DHT22;6832;51.186;3.236;2023-06-22T14:12:09;29.40;53.40
13521;DHT22;6832;51.186;3.236;2023-06-22T14:14:36;29.40;53.40
13521;DHT22;6832;51.186;3.236;2023-06-22T14:17:04;29.40;53.40
13521;DHT22;6832;51.186;3.236;2023-06-22T14:19:32;29.40;53.50
13521;DHT22;6832;51.186;3.236;2023-06-22T14:21:59;29.40;53.40
13521;DHT22;6832;51.186;3.236;2023-06-22T14:24:26;29.50;53.50
13521;DHT22;6832;51.186;3.236;2023-06-22T14:26:53;29.50;53.50
13521;DHT22;6832;51.186;3.236;2023-06-22T14:29:20;29.50;53.50
13521;DHT22;6832;51.186;3.236;2023-06-22T14:31:48;29.50;53.50
13521;DHT22;6832;51.186;3.236;2023-06-22T14:34:15;29.50;53.50
13521;DHT22;6832;51.186;3.236;2023-06-22T14:36:43;29.60;53.60
13521;DHT22;6832;51.186;3.236;2023-06-22T14:39:10;29.50;53.50
13521;DHT22;6832;51.186;3.236;2023-06-22T14:41:37;29.50;53.50
13521;DHT22;6832;51.186;3.236;2023-06-22T14:44:04;29.50;53.50
13521;DHT22;6832;51.186;3.236;2023-06-22T14:46:31;29.50;53.50
13521;DHT22;6832;51.186;3.236;2023-06-22T14:48:57;29.50;53.50
13521;DHT22;6832;51.186;3.236;2023-06-22T14:51:24;29.60;53.60
13521;DHT22;6832;51.186;3.236;2023-06-22T14:53:53;29.60;53.60
13521;DHT22;6832;51.186;3.236;2023-06-22T14:56:20;29.60;53.60
13521;DHT22;6832;51.186;3.236;2023-06-22T14:58:47;29.60;53.60
13521;DHT22;6832;51.186;3.236;2023-06-22T15:01:15;29.60;53.60
13521;DHT22;6832;51.186;3.236;2023-06-22T15:03:43;29.60;53.60
13521;DHT22;6832;51.186;3.236;2023-06-22T15:06:09;29.60;53.60
13521;DHT22;6832;51.186;3.236;2023-06-22T15:08:37;29.60;53.60
13521;DHT22;6832;51.186;3.236;2023-06-22T15:11:06;29.60;53.60
13521;DHT22;6832;51.186;3.236;2023-06-22T15:13:34;29.60;54.10
13521;DHT22;6832;51.186;3.236;2023-06-22T15:16:01;29.70;53.60
13521;DHT22;6832;51.186;3.236;2023-06-22T15:18:29;29.60;53.60
13521;DHT22;6832;51.186;3.236;2023-06-22T15:20:56;29.70;53.60
13521;DHT22;6832;51.186;3.236;2023-06-22T15:23:24;29.70;53.60
13521;DHT22;6832;51.186;3.236;2023-06-22T15:25:51;29.70;53.60
13521;DHT22;6832;51.186;3.236;2023-06-22T15:28:20;29.70;53.60
13521;DHT22;6832;51.186;3.236;2023-06-22T15:30:47;29.70;53.60
13521;DHT22;6832;51.186;3.236;2023-06-22T15:33:14;29.70;53.60
13521;DHT22;6832;51.186;3.236;2023-06-22T15:35:41;29.80;53.70
13521;DHT22;6832;51.186;3.236;2023-06-22T15:38:08;29.80;53.70
13521;DHT22;6832;51.186;3.236;2023-06-22T15:40:35;29.80;53.70
13521;DHT22;6832;51.186;3.236;2023-06-22T15:43:02;29.80;53.70
13521;DHT22;6832;51.186;3.236;2023-06-22T15:45:30;29.80;53.70
13521;DHT22;6832;51.186;3.236;2023-06-22T15:47:57;29.80;53.70